Time;durP1;ratioP1;P1;durP2;ratioP2;P2;SDS_P1;SDS_P2;PMS_P1;PMS_P2;Temp;Humidity;BMP_temperature;BMP_pressure;BME280_temperature;BME280_humidity;BME280_pressure;Samples;Min_cycle;Max_cycle;Signal;HPM_P1;HPM_P2
2023/09/02 00:01:56;;;;;;;4.30;1.40;;;;;;;13.85;100.00;97466.88;4965611;28;20031;-60
2023/09/02 00:04:22;;;;;;;3.03;1.20;;;;;;;13.93;100.00;97470.16;4976762;28;20049;-59
2023/09/02 00:06:49;;;;;;;3.60;1.73;;;;;;;13.86;100.00;97462.28;4967807;28;20043;-60
2023/09/02 00:09:15;;;;;;;2.55;1.08;;;;;;;13.82;100.00;97461.97;4986656;28;20043;-60
2023/09/02 00:11:42;;;;;;;4.25;1.33;;;;;;;13.79;100.00;97473.44;4988599;28;20088;-60
2023/09/02 00:14:08;;;;;;;3.63;1.20;;;;;;;13.95;100.00;97474.25;4998231;28;20041;-60
2023/09/02 00:16:35;;;;;;;3.17;1.67;;;;;;;13.88;100.00;97474.53;4963556;28;20043;-60
2023/09/02 00:19:03;;;;;;;4.65;1.50;;;;;;;13.70;100.00;97472.31;4999012;28;20050;-60
2023/09/02 00:21:32;;;;;;;3.53;1.30;;;;;;;13.58;100.00;97478.84;4961459;28;20078;-60
2023/09/02 00:24:05;;;;;;;3.60;1.40;;;;;;;13.43;100.00;97479.59;4966560;28;20532;-60
2023/09/02 00:26:32;;;;;;;5.82;1.63;;;;;;;13.30;100.00;97490.97;4964374;28;20034;-60
2023/09/02 00:29:00;;;;;;;6.20;2.40;;;;;;;13.22;100.00;97511.31;4968922;28;20418;-60
2023/09/02 00:31:29;;;;;;;3.53;1.80;;;;;;;13.11;100.00;97522.16;4982010;28;20524;-60
2023/09/02 00:33:55;;;;;;;2.60;1.20;;;;;;;13.14;100.00;97528.97;4972231;28;20104;-60
2023/09/02 00:36:22;;;;;;;4.43;1.40;;;;;;;13.14;100.00;97535.22;4965256;28;20043;-60
2023/09/02 00:38:49;;;;;;;4.50;1.10;;;;;;;13.24;100.00;97515.41;4963020;28;20152;-60
2023/09/02 00:41:26;;;;;;;6.40;1.42;;;;;;;13.26;100.00;97509.69;4963313;28;20043;-60
2023/09/02 00:43:55;;;;;;;5.18;1.52;;;;;;;13.30;100.00;97507.28;4982631;28;20140;-60
2023/09/02 00:46:23;;;;;;;3.67;1.58;;;;;;;13.22;100.00;97509.44;4970223;28;20051;-60
2023/09/02 00:48:50;;;;;;;4.15;1.45;;;;;;;13.10;100.00;97515.09;4976020;28;20511;-60
2023/09/02 00:51:17;;;;;;;4.90;2.17;;;;;;;13.00;100.00;97528.63;4969828;28;20125;-59
2023/09/02 00:53:47;;;;;;;4.93;1.67;;;;;;;12.99;100.00;97527.00;4983548;28;20052;-60
2023/09/02 00:56:15;;;;;;;3.85;1.35;;;;;;;12.94;100.00;97521.53;4990550;28;20043;-60
2023/09/02 00:58:42;;;;;;;3.90;1.45;;;;;;;12.93;100.00;97525.34;4968255;28;20111;-60
2023/09/02 01:01:10;;;;;;;4.10;1.45;;;;;;;12.95;100.00;97528.59;4966703;28;20054;-60
2023/09/02 01:03:38;;;;;;;3.75;1.63;;;;;;;12.94;100.00;97526.97;4976063;28;20105;-60
2023/09/02 01:06:07;;;;;;;5.15;1.58;;;;;;;12.98;100.00;97519.94;4969703;28;20035;-60
2023/09/02 01:08:34;;;;;;;3.85;1.38;;;;;;;13.03;100.00;97506.34;4969619;28;20413;-60
2023/09/02 01:11:01;;;;;;;4.78;1.50;;;;;;;13.14;100.00;97507.22;4987759;28;20054;-60
2023/09/02 01:13:29;;;;;;;2.80;1.45;;;;;;;13.00;100.00;97512.31;4975709;28;20049;-60
2023/09/02 01:15:56;;;;;;;4.53;1.48;;;;;;;13.02;100.00;97521.03;4985813;28;20173;-60
2023/09/02 01:18:23;;;;;;;4.45;1.50;;;;;;;13.01;100.00;97520.19;4968010;28;20116;-60
2023/09/02 01:21:29;;;;;;;3.90;2.40;;;;;;;13.07;100.00;97515.63;5005963;28;20038;-60
2023/09/02 01:24:37;;;;;;;5.30;1.58;;;;;;;13.16;100.00;97523.25;4980027;28;20701;-60
2023/09/02 01:27:17;;;;;;;3.22;1.45;;;;;;;13.02;100.00;97512.88;4981302;28;20041;-59
2023/09/02 01:30:06;;;;;;;4.63;1.48;;;;;;;12.88;100.00;97521.50;4978688;28;20513;-60
2023/09/02 01:32:37;;;;;;;3.15;1.40;;;;;;;12.82;100.00;97521.72;4957198;28;20065;-60
2023/09/02 01:35:06;;;;;;;5.85;1.98;;;;;;;12.84;100.00;97535.88;4984013;28;20534;-59
2023/09/02 01:37:37;;;;;;;2.78;1.30;;;;;;;13.05;100.00;97519.69;4960415;28;20307;-60
2023/09/02 01:40:06;;;;;;;4.03;1.40;;;;;;;13.18;100.00;97515.66;4971603;28;20051;-60
2023/09/02 01:42:35;;;;;;;3.90;1.40;;;;;;;13.07;100.00;97517.50;4972854;28;20051;-60
2023/09/02 01:45:03;;;;;;;3.17;1.60;;;;;;;12.93;100.00;97517.19;4976879;28;20537;-60
2023/09/02 01:47:31;;;;;;;3.30;1.48;;;;;;;12.86;100.00;97520.94;4961775;28;20470;-60
2023/09/02 01:49:58;;;;;;;5.20;2.05;;;;;;;12.81;100.00;97531.78;4969106;28;20043;-59
2023/09/02 01:52:26;;;;;;;3.00;1.52;;;;;;;12.73;100.00;97543.16;4964958;28;20506;-60
2023/09/02 01:54:53;;;;;;;3.63;1.52;;;;;;;12.58;100.00;97552.84;4977890;28;20059;-59
2023/09/02 01:57:19;;;;;;;3.15;1.40;;;;;;;12.52;100.00;97564.72;4975295;28;20047;-59
2023/09/02 01:59:46;;;;;;;4.43;1.67;;;;;;;12.52;100.00;97559.28;4963437;28;20297;-60
2023/09/02 02:02:16;;;;;;;3.95;1.50;;;;;;;12.61;100.00;97562.38;4990026;28;20047;-59
2023/09/02 02:04:50;;;;;;;3.33;1.60;;;;;;;12.79;100.00;97557.59;4941491;28;20454;-59
2023/09/02 02:07:20;;;;;;;3.05;1.48;;;;;;;12.87;100.00;97551.66;4937296;28;20058;-59
2023/09/02 02:09:50;;;;;;;5.00;1.60;;;;;;;12.92;100.00;97538.09;4927647;28;20051;-59
2023/09/02 02:12:17;;;;;;;3.58;1.48;;;;;;;13.00;100.00;97525.91;4941387;28;20038;-60
2023/09/02 02:14:46;;;;;;;6.10;1.70;;;;;;;12.95;100.00;97515.84;4974528;28;20603;-60
2023/09/02 02:17:14;;;;;;;5.50;1.60;;;;;;;12.90;100.00;97515.00;4960639;28;20065;-59
2023/09/02 02:19:42;;;;;;;4.97;1.40;;;;;;;12.88;100.00;97515.25;4972690;28;20036;-60
2023/09/02 02:22:09;;;;;;;4.00;1.20;;;;;;;12.86;100.00;97512.78;4964379;28;20731;-60
2023/09/02 02:24:36;;;;;;;5.95;1.67;;;;;;;12.88;100.00;97515.25;4975923;28;20034;-60
2023/09/02 02:27:03;;;;;;;4.43;2.13;;;;;;;12.77;100.00;97518.97;4966680;28;20039;-60
2023/09/02 02:29:30;;;;;;;3.90;1.30;;;;;;;12.70;100.00;97530.06;4967925;28;20051;-60
2023/09/02 02:31:56;;;;;;;5.20;1.60;;;;;;;12.58;100.00;97520.25;4987489;28;20042;-60
2023/09/02 02:34:26;;;;;;;5.50;1.80;;;;;;;12.55;100.00;97528.06;4980373;28;20411;-60
2023/09/02 02:36:52;;;;;;;7.35;1.60;;;;;;;12.64;100.00;97526.50;4981181;28;20042;-60
2023/09/02 02:39:19;;;;;;;4.32;1.50;;;;;;;12.57;100.00;97531.38;4966030;28;20050;-60
2023/09/02 02:41:46;;;;;;;4.90;1.70;;;;;;;12.58;100.00;97539.25;4976764;28;20053;-59
2023/09/02 02:44:12;;;;;;;2.95;1.30;;;;;;;12.67;100.00;97541.47;4974242;28;20049;-60
2023/09/02 02:46:39;;;;;;;2.22;1.20;;;;;;;12.77;100.00;97540.72;4979240;28;20119;-59
2023/09/02 02:49:05;;;;;;;4.75;1.60;;;;;;;12.83;100.00;97550.56;4996030;28;20128;-60
2023/09/02 02:51:32;;;;;;;3.95;1.55;;;;;;;12.68;100.00;97537.69;4990024;28;20115;-60
2023/09/02 02:53:59;;;;;;;3.85;1.92;;;;;;;12.61;100.00;97541.44;4966998;28;20038;-60
2023/09/02 02:56:25;;;;;;;5.20;1.67;;;;;;;12.50;100.00;97547.88;4983015;28;20043;-59
2023/09/02 02:58:54;;;;;;;3.97;1.52;;;;;;;12.45;100.00;97556.81;4961736;28;20040;-59
2023/09/02 03:01:21;;;;;;;2.63;1.48;;;;;;;12.44;100.00;97566.03;4968281;28;20121;-59
2023/09/02 03:03:48;;;;;;;4.75;1.48;;;;;;;12.48;100.00;97569.03;4966893;28;20042;-59
2023/09/02 03:06:21;;;;;;;4.00;1.67;;;;;;;12.53;100.00;97571.00;4969250;28;20510;-59
2023/09/02 03:08:47;;;;;;;5.18;1.73;;;;;;;12.59;100.00;97567.22;4959409;28;20126;-60
2023/09/02 03:11:14;;;;;;;3.95;1.73;;;;;;;12.66;100.00;97575.16;4971777;28;20043;-60
2023/09/02 03:13:41;;;;;;;4.32;1.70;;;;;;;12.63;100.00;97581.13;4964354;28;20053;-60
2023/09/02 03:16:13;;;;;;;5.95;1.80;;;;;;;12.56;100.00;97576.72;4962469;28;20077;-60
2023/09/02 03:18:41;;;;;;;4.50;1.65;;;;;;;12.47;100.00;97570.97;4967343;28;20045;-60
2023/09/02 03:21:08;;;;;;;4.68;1.92;;;;;;;12.52;100.00;97583.75;4981386;28;20101;-59
2023/09/02 03:23:36;;;;;;;7.57;2.00;;;;;;;12.57;100.00;97591.13;4963485;28;20286;-59
2023/09/02 03:26:17;;;;;;;3.55;1.83;;;;;;;12.66;100.00;97599.59;4987939;28;20042;-59
2023/09/02 03:28:46;;;;;;;3.65;1.80;;;;;;;12.67;100.00;97582.22;4960786;28;20035;-60
2023/09/02 03:31:13;;;;;;;4.45;1.85;;;;;;;12.72;100.00;97576.84;4971191;28;20054;-59
2023/09/02 03:33:42;;;;;;;3.38;1.77;;;;;;;12.70;100.00;97573.53;4962823;28;20080;-60
2023/09/02 03:36:17;;;;;;;6.30;1.83;;;;;;;12.68;100.00;97571.09;4984400;28;20047;-60
2023/09/02 03:38:45;;;;;;;4.15;1.63;;;;;;;12.68;100.00;97578.44;4962705;28;20042;-60
2023/09/02 03:41:13;;;;;;;5.18;1.95;;;;;;;12.65;100.00;97579.78;4978991;28;20688;-60
2023/09/02 03:43:39;;;;;;;4.35;1.63;;;;;;;12.58;100.00;97560.16;4959372;28;20575;-60
2023/09/02 03:46:06;;;;;;;3.40;1.70;;;;;;;12.53;100.00;97552.78;4982959;28;20641;-60
2023/09/02 03:48:33;;;;;;;4.07;1.88;;;;;;;12.45;100.00;97558.69;4961680;28;20070;-59
2023/09/02 03:51:12;;;;;;;3.58;1.60;;;;;;;12.43;100.00;97555.44;4964860;28;20129;-59
2023/09/02 03:53:43;;;;;;;4.57;1.83;;;;;;;12.44;100.00;97549.75;4973550;28;20637;-59
2023/09/02 03:56:11;;;;;;;4.82;1.70;;;;;;;12.38;100.00;97571.69;4974022;28;20126;-58
2023/09/02 03:58:38;;;;;;;4.18;1.77;;;;;;;12.39;100.00;97576.03;4978616;28;20075;-60
2023/09/02 04:01:05;;;;;;;4.05;1.50;;;;;;;12.33;100.00;97578.72;4981211;28;20066;-60
2023/09/02 04:03:36;;;;;;;4.25;1.88;;;;;;;12.34;100.00;97580.34;4959523;28;20043;-59
2023/09/02 04:06:06;;;;;;;4.00;2.25;;;;;;;12.27;100.00;97597.94;4971440;28;20050;-59
2023/09/02 04:08:34;;;;;;;4.10;1.95;;;;;;;12.25;100.00;97606.31;4953706;28;20718;-59
2023/09/02 04:11:05;;;;;;;4.10;1.83;;;;;;;12.25;100.00;97616.34;4973157;28;20047;-59
2023/09/02 04:13:31;;;;;;;3.38;1.80;;;;;;;12.22;100.00;97628.56;4969834;28;20553;-59
2023/09/02 04:16:05;;;;;;;4.40;1.83;;;;;;;12.18;100.00;97611.13;4984671;28;20465;-60
2023/09/02 04:18:33;;;;;;;5.68;2.30;;;;;;;12.08;100.00;97601.00;4982642;28;20521;-60
2023/09/02 04:21:02;;;;;;;4.13;1.85;;;;;;;12.03;100.00;97606.34;4975177;28;20038;-59
2023/09/02 04:23:30;;;;;;;5.68;1.92;;;;;;;11.93;100.00;97624.16;4964477;28;20199;-59
2023/09/02 04:26:02;;;;;;;3.47;1.67;;;;;;;11.92;100.00;97627.94;4989161;28;20043;-60
2023/09/02 04:28:29;;;;;;;4.20;1.77;;;;;;;11.94;100.00;97638.56;4975659;28;20050;-60
2023/09/02 04:30:59;;;;;;;6.82;2.55;;;;;;;11.93;100.00;97642.31;4969443;28;20418;-62
2023/09/02 04:33:29;;;;;;;3.60;1.77;;;;;;;12.05;100.00;97651.19;4967226;28;20458;-60
2023/09/02 04:35:56;;;;;;;5.55;2.35;;;;;;;12.11;100.00;97654.78;4980392;28;20049;-60
2023/09/02 04:38:25;;;;;;;4.50;1.63;;;;;;;12.10;100.00;97634.94;4975831;28;20051;-59
2023/09/02 04:40:53;;;;;;;6.00;2.10;;;;;;;12.08;100.00;97625.41;4989535;28;20696;-59
2023/09/02 04:43:20;;;;;;;3.63;2.00;;;;;;;12.05;100.00;97609.63;4964107;28;20046;-59
2023/09/02 04:45:48;;;;;;;6.65;2.38;;;;;;;12.03;100.00;97611.78;4973280;28;20050;-60
2023/09/02 04:48:15;;;;;;;5.05;1.80;;;;;;;12.06;100.00;97603.97;4982415;28;20088;-59
2023/09/02 04:50:43;;;;;;;5.03;1.75;;;;;;;12.01;100.00;97609.31;4966428;28;20074;-59
2023/09/02 04:53:12;;;;;;;3.83;1.85;;;;;;;12.03;100.00;97618.03;4973086;28;20039;-59
2023/09/02 04:55:41;;;;;;;3.60;1.63;;;;;;;12.06;100.00;97622.16;4992778;28;20133;-60
2023/09/02 04:58:11;;;;;;;4.97;1.88;;;;;;;12.14;100.00;97604.59;4980661;28;20041;-61
2023/09/02 05:00:40;;;;;;;4.05;1.85;;;;;;;12.08;100.00;97593.69;4974195;28;20046;-61
2023/09/02 05:03:08;;;;;;;6.10;2.33;;;;;;;12.02;100.00;97600.09;4969405;28;20116;-61
2023/09/02 05:05:35;;;;;;;3.65;1.67;;;;;;;12.03;100.00;97599.03;4997774;28;20054;-60
2023/09/02 05:08:05;;;;;;;3.60;1.60;;;;;;;12.12;100.00;97606.75;4964463;28;20100;-60
2023/09/02 05:10:31;;;;;;;5.35;2.00;;;;;;;12.22;100.00;97590.53;4975653;28;20145;-61
2023/09/02 05:12:58;;;;;;;3.22;1.60;;;;;;;12.24;100.00;97593.84;4967264;28;20047;-61
2023/09/02 05:15:27;;;;;;;5.00;2.00;;;;;;;12.19;100.00;97599.19;4987264;28;20142;-60
2023/09/02 05:17:56;;;;;;;6.60;2.13;;;;;;;12.23;100.00;97608.47;4970626;28;20042;-60
2023/09/02 05:20:23;;;;;;;6.85;2.25;;;;;;;12.29;100.00;97604.75;4984193;28;20038;-60
2023/09/02 05:22:49;;;;;;;4.93;1.73;;;;;;;12.37;100.00;97603.44;4963429;28;20054;-60
2023/09/02 05:25:16;;;;;;;5.20;2.50;;;;;;;12.43;100.00;97591.56;4986839;28;20043;-49
2023/09/02 05:27:43;;;;;;;4.75;2.45;;;;;;;12.37;100.00;97595.28;4980074;28;20130;-47
2023/09/02 05:30:10;;;;;;;3.67;1.70;;;;;;;12.46;100.00;97593.72;4971526;28;20088;-49
2023/09/02 05:32:36;;;;;;;5.00;1.90;;;;;;;12.57;100.00;97591.13;4975951;28;20133;-51
2023/09/02 05:35:03;;;;;;;3.85;2.08;;;;;;;12.59;100.00;97600.66;4968704;28;20126;-49
2023/09/02 05:37:30;;;;;;;4.80;2.00;;;;;;;12.68;100.00;97606.41;4966080;28;20513;-48
2023/09/02 05:39:56;;;;;;;4.55;1.88;;;;;;;12.77;100.00;97598.59;4962427;28;20038;-49
2023/09/02 05:42:23;;;;;;;10.45;1.85;;;;;;;12.88;100.00;97596.78;4987034;28;20057;-51
2023/09/02 05:44:49;;;;;;;3.22;1.70;;;;;;;13.04;100.00;97588.72;4981114;28;20057;-49
2023/09/02 05:47:16;;;;;;;3.72;1.60;;;;;;;13.16;100.00;97583.88;4966278;28;20039;-49
2023/09/02 05:49:43;;;;;;;3.38;1.77;;;;;;;13.23;100.00;97581.75;4965753;28;20572;-48
2023/09/02 05:52:09;;;;;;;3.38;2.25;;;;;;;13.31;100.00;97574.19;4973341;28;20506;-47
2023/09/02 05:54:36;;;;;;;3.80;1.85;;;;;;;13.37;100.00;97578.53;4947174;28;20046;-60
2023/09/02 05:57:03;;;;;;;3.42;1.70;;;;;;;13.39;100.00;97585.34;4926353;28;20058;-60
2023/09/02 05:59:29;;;;;;;5.57;1.98;;;;;;;13.50;100.00;97591.69;4960151;28;20129;-61
2023/09/02 06:01:58;;;;;;;4.03;1.80;;;;;;;13.56;100.00;97594.44;4969782;28;20461;-61
2023/09/02 06:04:25;;;;;;;4.15;1.80;;;;;;;13.61;100.00;97578.13;4988042;28;20059;-60
2023/09/02 06:06:51;;;;;;;5.85;1.90;;;;;;;13.73;100.00;97600.50;4986392;28;20042;-61
2023/09/02 06:09:18;;;;;;;4.18;1.90;;;;;;;13.84;100.00;97601.34;4982837;28;20500;-61
2023/09/02 06:11:44;;;;;;;5.47;1.92;;;;;;;13.99;100.00;97603.28;4988035;28;20042;-61
2023/09/02 06:14:11;;;;;;;3.58;2.00;;;;;;;14.17;100.00;97596.53;4982890;28;20051;-61
2023/09/02 06:16:38;;;;;;;5.45;2.03;;;;;;;14.33;100.00;97587.56;4972624;28;20038;-61
2023/09/02 06:19:04;;;;;;;4.78;1.90;;;;;;;14.50;100.00;97579.94;4993515;28;20042;-61
2023/09/02 06:21:31;;;;;;;3.97;1.70;;;;;;;14.65;100.00;97581.00;4975749;28;20053;-61
2023/09/02 06:23:58;;;;;;;3.60;2.03;;;;;;;14.79;100.00;97568.50;4981799;28;20047;-61
2023/09/02 06:26:25;;;;;;;4.85;1.80;;;;;;;14.95;100.00;97568.47;5000419;28;20040;-61
2023/09/02 06:28:52;;;;;;;4.60;2.17;;;;;;;15.08;100.00;97567.06;4961850;28;20054;-61
2023/09/02 06:31:18;;;;;;;3.45;1.60;;;;;;;15.24;100.00;97565.13;4985579;28;20448;-61
2023/09/02 06:33:45;;;;;;;3.10;1.60;;;;;;;15.37;100.00;97571.88;4970638;28;20043;-60
2023/09/02 06:36:12;;;;;;;5.40;2.17;;;;;;;15.48;100.00;97569.91;4989437;28;20046;-61
2023/09/02 06:38:39;;;;;;;3.53;1.83;;;;;;;15.56;100.00;97558.44;4966659;28;20425;-61
2023/09/02 06:41:10;;;;;;;4.30;1.70;;;;;;;15.70;100.00;97564.09;4960077;28;20141;-60
2023/09/02 06:43:38;;;;;;;3.92;1.70;;;;;;;15.89;100.00;97571.66;4979008;28;20100;-60
2023/09/02 06:46:19;;;;;;;3.60;1.80;;;;;;;16.01;100.00;97571.34;4977016;28;20053;-60
2023/09/02 06:48:47;;;;;;;3.63;1.45;;;;;;;16.12;100.00;97575.66;4964716;28;20112;-61
2023/09/02 06:51:14;;;;;;;5.63;1.67;;;;;;;16.21;100.00;97572.28;4978066;28;20066;-61
2023/09/02 06:53:41;;;;;;;4.22;1.70;;;;;;;16.35;100.00;97570.56;4970272;28;20057;-60
2023/09/02 06:56:09;;;;;;;4.10;1.73;;;;;;;16.47;100.00;97569.38;5002391;28;20428;-60
2023/09/02 06:58:38;;;;;;;2.85;1.55;;;;;;;16.75;100.00;97570.50;4967903;28;20043;-60
2023/09/02 07:01:05;;;;;;;5.03;1.58;;;;;;;16.94;100.00;97566.19;4961416;28;20074;-61
2023/09/02 07:03:32;;;;;;;2.97;1.35;;;;;;;17.09;100.00;97570.72;4969160;28;20054;-60
2023/09/02 07:06:06;;;;;;;4.57;1.60;;;;;;;17.21;100.00;97570.34;4971945;28;20039;-60
2023/09/02 07:08:33;;;;;;;6.03;1.45;;;;;;;17.33;100.00;97569.94;4972478;28;20117;-60
2023/09/02 07:11:00;;;;;;;3.65;1.35;;;;;;;17.45;100.00;97570.34;4967416;28;20045;-59
2023/09/02 07:13:26;;;;;;;2.65;1.35;;;;;;;17.57;100.00;97577.34;4970507;28;20121;-60
2023/09/02 07:15:58;;;;;;;3.83;1.33;;;;;;;17.73;100.00;97576.00;4984846;28;20038;-59
2023/09/02 07:18:25;;;;;;;4.80;1.30;;;;;;;17.88;100.00;97576.91;4970367;28;20086;-60
2023/09/02 07:20:51;;;;;;;3.55;1.95;;;;;;;17.96;100.00;97575.44;4968889;28;20046;-61
2023/09/02 07:23:19;;;;;;;4.07;1.50;;;;;;;18.04;100.00;97583.00;4962806;28;20121;-60
2023/09/02 07:25:46;;;;;;;2.85;1.35;;;;;;;18.19;100.00;97585.53;5000236;28;20069;-60
2023/09/02 07:28:12;;;;;;;3.20;1.45;;;;;;;18.29;100.00;97587.31;4967641;28;20043;-61
2023/09/02 07:30:39;;;;;;;3.90;1.48;;;;;;;18.35;100.00;97579.81;4943434;28;20078;-60
2023/09/02 07:33:06;;;;;;;3.30;1.30;;;;;;;18.46;100.00;97589.50;4945127;28;20046;-60
2023/09/02 07:35:36;;;;;;;5.47;1.48;;;;;;;18.57;100.00;97589.34;4982107;28;20050;-60
2023/09/02 07:38:06;;;;;;;3.67;1.40;;;;;;;18.64;100.00;97594.47;4963894;28;20061;-60
2023/09/02 07:40:32;;;;;;;5.22;1.60;;;;;;;18.69;100.00;97597.91;4962138;28;20078;-60
2023/09/02 07:43:00;;;;;;;3.83;1.42;;;;;;;18.75;100.00;97587.66;4978484;28;20055;-60
2023/09/02 07:45:27;;;;;;;3.15;1.40;;;;;;;18.84;100.00;97587.81;5002107;28;20115;-61
2023/09/02 07:47:54;;;;;;;3.53;1.27;;;;;;;18.90;99.94;97594.81;4992403;28;20039;-60
2023/09/02 07:50:20;;;;;;;4.10;1.30;;;;;;;19.01;99.77;97605.63;4969283;28;20047;-61
2023/09/02 07:52:48;;;;;;;4.53;1.50;;;;;;;19.08;99.49;97604.13;4986557;28;20051;-60
2023/09/02 07:55:14;;;;;;;3.03;1.30;;;;;;;19.12;99.22;97606.28;4986115;28;20061;-60
2023/09/02 07:57:44;;;;;;;3.45;1.58;;;;;;;19.17;97.38;97612.47;4976586;28;20045;-60
2023/09/02 08:00:11;;;;;;;4.65;1.52;;;;;;;19.29;97.08;97606.50;4964032;28;20561;-60
2023/09/02 08:02:38;;;;;;;4.45;1.30;;;;;;;19.44;96.64;97604.56;4981990;28;20155;-60
2023/09/02 08:05:05;;;;;;;3.67;1.30;;;;;;;19.47;96.46;97613.00;4977244;28;20541;-60
2023/09/02 08:07:32;;;;;;;2.53;1.02;;;;;;;19.55;96.00;97616.16;4977245;28;20054;-60
2023/09/02 08:09:58;;;;;;;7.43;1.38;;;;;;;19.58;96.30;97613.66;4964553;28;20122;-61
2023/09/02 08:12:25;;;;;;;2.60;1.10;;;;;;;19.65;97.15;97612.41;4973621;28;20043;-61
2023/09/02 08:14:51;;;;;;;3.67;1.40;;;;;;;19.65;95.92;97606.91;4978782;28;20501;-61
2023/09/02 08:17:19;;;;;;;3.83;1.38;;;;;;;19.70;96.06;97613.13;4979464;28;20066;-60
2023/09/02 08:19:46;;;;;;;6.28;1.50;;;;;;;19.74;95.43;97618.81;4963717;28;20047;-61
2023/09/02 08:22:13;;;;;;;2.97;1.40;;;;;;;19.77;95.83;97612.72;4972590;28;20126;-61
2023/09/02 08:24:40;;;;;;;4.35;1.45;;;;;;;19.81;95.34;97619.22;4986163;28;20632;-60
2023/09/02 08:27:09;;;;;;;3.00;1.15;;;;;;;19.83;94.00;97616.16;4976226;28;20035;-61
2023/09/02 08:29:35;;;;;;;3.17;1.73;;;;;;;19.88;95.03;97613.31;4970633;28;20043;-60
2023/09/02 08:32:02;;;;;;;2.50;1.08;;;;;;;19.98;94.53;97617.78;4969714;28;20046;-60
2023/09/02 08:34:28;;;;;;;2.00;0.90;;;;;;;20.07;94.12;97615.94;4980498;28;20557;-60
2023/09/02 08:36:55;;;;;;;4.40;1.95;;;;;;;20.16;92.98;97612.47;4975350;28;20043;-60
2023/09/02 08:39:22;;;;;;;4.90;1.88;;;;;;;20.31;93.70;97614.84;4981887;28;20122;-61
2023/09/02 08:41:49;;;;;;;3.65;1.27;;;;;;;20.35;93.19;97618.59;4966574;28;20129;-61
2023/09/02 08:44:17;;;;;;;3.15;1.40;;;;;;;20.48;90.82;97630.69;4973639;28;20648;-60
2023/09/02 08:46:46;;;;;;;3.20;1.40;;;;;;;20.58;88.30;97624.16;4977023;28;20125;-61
2023/09/02 08:49:16;;;;;;;4.53;1.10;;;;;;;20.67;91.06;97629.69;4960613;28;20057;-61
2023/09/02 08:51:43;;;;;;;3.95;1.30;;;;;;;20.74;87.05;97632.84;4983117;28;20117;-60
2023/09/02 08:54:12;;;;;;;3.05;1.60;;;;;;;20.75;86.51;97633.66;4989871;28;20047;-60
2023/09/02 08:56:41;;;;;;;2.90;1.88;;;;;;;20.82;86.56;97623.00;4982376;28;20122;-60
2023/09/02 08:59:09;;;;;;;2.88;1.00;;;;;;;20.94;85.60;97629.91;4997538;28;20137;-61
2023/09/02 09:01:44;;;;;;;3.58;1.10;;;;;;;20.97;84.38;97632.84;4962729;28;20697;-60
2023/09/02 09:04:13;;;;;;;3.58;1.40;;;;;;;21.08;83.58;97627.88;4986517;28;20104;-61
2023/09/02 09:06:40;;;;;;;3.17;1.17;;;;;;;21.20;83.41;97627.31;4985051;28;20041;-61
2023/09/02 09:09:11;;;;;;;2.63;0.93;;;;;;;21.35;81.06;97623.34;4989494;28;20055;-61
2023/09/02 09:11:43;;;;;;;4.03;1.20;;;;;;;21.42;80.14;97631.94;4966390;28;20054;-61
2023/09/02 09:14:16;;;;;;;3.75;1.23;;;;;;;21.51;82.96;97628.41;4982403;28;20046;-60
2023/09/02 09:16:45;;;;;;;4.15;1.23;;;;;;;21.56;80.95;97633.78;4973369;28;20100;-61
2023/09/02 09:19:12;;;;;;;2.72;1.00;;;;;;;21.64;80.62;97637.72;4980028;28;20058;-61
2023/09/02 09:21:38;;;;;;;3.92;0.93;;;;;;;21.66;79.55;97640.94;4963827;28;20078;-60
2023/09/02 09:24:10;;;;;;;3.08;1.30;;;;;;;21.70;80.33;97642.75;4975764;28;20046;-60
2023/09/02 09:26:38;;;;;;;3.10;1.13;;;;;;;21.82;80.37;97639.41;4981353;28;20507;-61
2023/09/02 09:29:10;;;;;;;2.92;1.20;;;;;;;21.93;80.60;97650.94;4978910;28;20418;-61
2023/09/02 09:31:37;;;;;;;4.80;1.17;;;;;;;22.07;75.92;97645.31;4969842;28;20770;-60
2023/09/02 09:34:04;;;;;;;3.55;1.00;;;;;;;22.18;76.14;97636.72;4979079;28;20122;-61
2023/09/02 09:36:31;;;;;;;2.33;1.10;;;;;;;22.28;74.43;97636.41;4979257;28;20519;-60
2023/09/02 09:39:03;;;;;;;6.20;1.17;;;;;;;22.35;73.04;97635.94;4975789;28;20836;-61
2023/09/02 09:41:30;;;;;;;2.72;1.00;;;;;;;22.41;74.07;97633.84;4963700;28;20042;-61
2023/09/02 09:44:09;;;;;;;2.08;0.90;;;;;;;22.50;72.79;97639.34;4972625;28;20076;-59
2023/09/02 09:46:56;;;;;;;4.28;1.35;;;;;;;22.52;71.52;97639.84;4976702;28;20032;-60
2023/09/02 09:49:25;;;;;;;3.03;0.82;;;;;;;22.58;69.49;97639.38;4970671;28;20121;-60
2023/09/02 09:52:08;;;;;;;2.88;1.10;;;;;;;22.61;69.09;97629.63;4966876;28;20042;-60
2023/09/02 09:54:37;;;;;;;3.05;1.17;;;;;;;22.62;71.90;97634.00;4970131;28;20044;-61
2023/09/02 09:57:05;;;;;;;3.58;1.15;;;;;;;22.66;71.33;97642.47;4994357;28;20112;-60
2023/09/02 09:59:34;;;;;;;2.72;1.10;;;;;;;22.65;70.68;97636.13;4970369;28;20433;-60
2023/09/02 10:02:05;;;;;;;2.97;1.10;;;;;;;22.68;70.93;97634.66;4968041;28;20038;-61
2023/09/02 10:04:32;;;;;;;4.55;1.50;;;;;;;22.78;71.15;97631.59;4968387;28;20042;-60
2023/09/02 10:07:04;;;;;;;3.78;1.33;;;;;;;22.93;69.26;97640.47;4961447;28;20046;-60
2023/09/02 10:09:42;;;;;;;2.72;0.90;;;;;;;22.88;67.58;97641.44;4995041;28;20047;-61
2023/09/02 10:12:11;;;;;;;3.55;1.10;;;;;;;22.98;68.95;97634.78;4967473;28;20154;-61
2023/09/02 10:14:46;;;;;;;1.98;0.90;;;;;;;23.06;67.53;97638.66;4993491;28;20064;-60
2023/09/02 10:17:14;;;;;;;2.13;1.08;;;;;;;23.15;68.26;97635.88;4966696;28;20375;-60
2023/09/02 10:19:42;;;;;;;2.97;1.10;;;;;;;23.17;65.62;97630.81;4985424;28;20053;-61
2023/09/02 10:22:08;;;;;;;3.83;1.00;;;;;;;23.23;67.28;97637.81;4965966;28;20510;-61
2023/09/02 10:24:44;;;;;;;2.83;1.00;;;;;;;23.32;67.49;97637.78;4982872;28;20042;-61
2023/09/02 10:27:23;;;;;;;3.90;1.02;;;;;;;23.45;65.55;97642.31;4998165;28;20050;-61
2023/09/02 10:30:01;;;;;;;2.75;1.00;;;;;;;23.52;67.08;97644.56;4972951;28;20497;-61
2023/09/02 10:32:40;;;;;;;2.53;1.17;;;;;;;23.62;66.50;97649.72;4975723;28;20042;-61
2023/09/02 10:35:22;;;;;;;1.92;0.88;;;;;;;23.69;65.97;97634.59;4963498;28;20132;-61
2023/09/02 10:37:58;;;;;;;1.77;0.85;;;;;;;23.76;61.11;97634.84;4970450;28;20128;-61
2023/09/02 10:40:27;;;;;;;1.90;0.90;;;;;;;23.77;59.86;97642.81;4969842;28;20081;-61
2023/09/02 10:42:54;;;;;;;3.22;1.10;;;;;;;23.78;61.09;97638.13;4980124;28;20059;-61
2023/09/02 10:45:21;;;;;;;1.70;0.70;;;;;;;23.88;60.81;97639.69;4968101;28;20043;-61
2023/09/02 10:47:50;;;;;;;2.47;0.98;;;;;;;23.88;60.48;97636.94;5001257;28;20120;-61
2023/09/02 10:50:20;;;;;;;3.88;1.23;;;;;;;23.89;61.19;97636.56;4959947;28;20047;-62
2023/09/02 10:52:49;;;;;;;2.03;0.90;;;;;;;23.83;60.22;97634.34;4971920;28;20048;-61
2023/09/02 10:55:59;;;;;;;4.43;1.15;;;;;;;23.88;59.28;97634.16;4988109;28;20078;-61
2023/09/02 10:58:26;;;;;;;2.33;1.13;;;;;;;23.75;60.05;97636.84;4978870;28;20042;-61
2023/09/02 11:00:53;;;;;;;2.08;0.82;;;;;;;23.69;60.65;97635.38;4961783;28;20043;-61
2023/09/02 11:03:43;;;;;;;2.33;0.90;;;;;;;23.72;60.86;97634.72;4959845;28;20141;-61
2023/09/02 11:06:12;;;;;;;2.85;0.98;;;;;;;23.74;60.63;97631.63;4984566;28;20126;-61
2023/09/02 11:08:41;;;;;;;2.53;1.08;;;;;;;23.64;61.65;97633.63;4943568;28;20047;-60
2023/09/02 11:11:08;;;;;;;2.67;0.98;;;;;;;23.62;61.59;97630.38;4962419;28;20047;-61
2023/09/02 11:14:06;;;;;;;3.08;1.15;;;;;;;23.70;62.06;97622.38;4969383;28;20494;-61
2023/09/02 11:16:34;;;;;;;2.85;0.98;;;;;;;23.69;61.83;97624.31;4986051;28;20051;-61
2023/09/02 11:19:01;;;;;;;4.00;1.10;;;;;;;23.83;61.47;97628.81;4956052;28;20057;-61
2023/09/02 11:21:42;;;;;;;1.55;0.90;;;;;;;23.89;61.98;97627.47;4959516;28;20058;-61
2023/09/02 11:24:27;;;;;;;3.50;1.10;;;;;;;24.00;66.38;97630.66;4961195;28;20043;-61
2023/09/02 11:26:59;;;;;;;2.28;1.13;;;;;;;24.08;67.92;97621.50;4963219;28;20153;-61
2023/09/02 11:29:30;;;;;;;3.05;1.40;;;;;;;24.20;66.80;97622.75;4998936;28;20107;-61
2023/09/02 11:32:02;;;;;;;3.30;1.30;;;;;;;24.25;67.66;97615.06;4971147;28;20050;-60
2023/09/02 11:34:30;;;;;;;6.05;1.13;;;;;;;24.37;65.49;97622.63;4984113;28;20054;-61
2023/09/02 11:36:58;;;;;;;3.55;1.10;;;;;;;24.36;64.70;97628.50;4975548;28;20529;-61